sensor_id;sensor_type;location;lat;lon;timestamp;pressure;altitude;pressure_sealevel;temperature;humidity
64228;BME280;50546;49.146;10.616;2022-08-25T00:00:56;96550.06;;;19.94;69.37
64228;BME280;50546;49.146;10.616;2022-08-25T00:03:22;96552.00;;;19.93;69.08
64228;BME280;50546;49.146;10.616;2022-08-25T00:05:47;96559.09;;;19.98;68.56
64228;BME280;50546;49.146;10.616;2022-08-25T00:08:12;96553.13;;;19.92;68.53
64228;BME280;50546;49.146;10.616;2022-08-25T00:10:38;96555.81;;;19.89;68.91
64228;BME280;50546;49.146;10.616;2022-08-25T00:13:04;96556.47;;;19.79;68.99
64228;BME280;50546;49.146;10.616;2022-08-25T00:15:29;96556.31;;;19.68;69.12
64228;BME280;50546;49.146;10.616;2022-08-25T00:17:56;96549.16;;;19.60;69.31
64228;BME280;50546;49.146;10.616;2022-08-25T00:20:22;96553.25;;;19.46;69.93
64228;BME280;50546;49.146;10.616;2022-08-25T00:22:48;96556.00;;;19.46;69.79
64228;BME280;50546;49.146;10.616;2022-08-25T00:25:13;96554.78;;;19.44;70.08
64228;BME280;50546;49.146;10.616;2022-08-25T00:27:39;96552.50;;;19.49;70.33
64228;BME280;50546;49.146;10.616;2022-08-25T00:30:05;96553.03;;;19.32;70.81
64228;BME280;50546;49.146;10.616;2022-08-25T00:32:31;96550.94;;;19.22;71.30
64228;BME280;50546;49.146;10.616;2022-08-25T00:34:56;96553.38;;;19.31;71.08
64228;BME280;50546;49.146;10.616;2022-08-25T00:37:22;96548.53;;;19.43;70.73
64228;BME280;50546;49.146;10.616;2022-08-25T00:39:47;96551.38;;;19.51;70.67
64228;BME280;50546;49.146;10.616;2022-08-25T00:42:13;96555.41;;;19.60;70.79
64228;BME280;50546;49.146;10.616;2022-08-25T00:44:39;96549.81;;;19.76;69.91
64228;BME280;50546;49.146;10.616;2022-08-25T00:47:06;96553.09;;;19.89;69.44
64228;BME280;50546;49.146;10.616;2022-08-25T00:49:55;96559.78;;;19.91;69.56
64228;BME280;50546;49.146;10.616;2022-08-25T00:52:26;96558.47;;;19.82;69.41
64228;BME280;50546;49.146;10.616;2022-08-25T00:57:34;96542.34;;;19.73;69.84
64228;BME280;50546;49.146;10.616;2022-08-25T01:00:09;96544.63;;;19.44;71.38
64228;BME280;50546;49.146;10.616;2022-08-25T01:02:36;96547.31;;;19.41;71.12
64228;BME280;50546;49.146;10.616;2022-08-25T01:05:02;96545.13;;;19.27;71.72
64228;BME280;50546;49.146;10.616;2022-08-25T01:07:28;96540.41;;;19.24;70.84
64228;BME280;50546;49.146;10.616;2022-08-25T01:09:53;96530.97;;;19.18;70.63
64228;BME280;50546;49.146;10.616;2022-08-25T01:12:20;96532.41;;;19.12;70.85
64228;BME280;50546;49.146;10.616;2022-08-25T01:14:47;96535.88;;;19.09;71.05
64228;BME280;50546;49.146;10.616;2022-08-25T01:17:13;96530.06;;;19.10;71.39
64228;BME280;50546;49.146;10.616;2022-08-25T01:19:38;96532.41;;;19.12;71.70
64228;BME280;50546;49.146;10.616;2022-08-25T01:22:04;96532.19;;;18.97;71.65
64228;BME280;50546;49.146;10.616;2022-08-25T01:24:35;96525.63;;;19.02;71.65
64228;BME280;50546;49.146;10.616;2022-08-25T01:27:03;96531.50;;;19.04;71.68
64228;BME280;50546;49.146;10.616;2022-08-25T01:29:29;96532.97;;;18.98;72.37
64228;BME280;50546;49.146;10.616;2022-08-25T01:31:58;96533.16;;;19.09;72.48
64228;BME280;50546;49.146;10.616;2022-08-25T01:34:25;96529.31;;;19.13;72.11
64228;BME280;50546;49.146;10.616;2022-08-25T01:36:52;96532.53;;;19.19;71.84
64228;BME280;50546;49.146;10.616;2022-08-25T01:39:18;96523.72;;;19.29;71.14
64228;BME280;50546;49.146;10.616;2022-08-25T01:42:03;96526.84;;;19.31;70.96
64228;BME280;50546;49.146;10.616;2022-08-25T01:44:46;96520.25;;;19.32;71.49
64228;BME280;50546;49.146;10.616;2022-08-25T01:47:11;96520.75;;;19.15;72.18
64228;BME280;50546;49.146;10.616;2022-08-25T01:49:37;96512.81;;;19.06;72.63
64228;BME280;50546;49.146;10.616;2022-08-25T01:54:41;96516.91;;;19.19;72.06
64228;BME280;50546;49.146;10.616;2022-08-25T01:57:07;96519.41;;;19.28;72.11
64228;BME280;50546;49.146;10.616;2022-08-25T01:59:33;96518.72;;;19.35;71.48
64228;BME280;50546;49.146;10.616;2022-08-25T02:01:58;96516.09;;;19.42;70.76
64228;BME280;50546;49.146;10.616;2022-08-25T02:04:24;96517.31;;;19.44;71.08
64228;BME280;50546;49.146;10.616;2022-08-25T02:06:50;96517.84;;;19.54;70.70
64228;BME280;50546;49.146;10.616;2022-08-25T02:09:18;96512.78;;;19.56;70.60
64228;BME280;50546;49.146;10.616;2022-08-25T02:11:46;96514.34;;;19.57;70.35
64228;BME280;50546;49.146;10.616;2022-08-25T02:14:12;96513.84;;;19.47;71.33
64228;BME280;50546;49.146;10.616;2022-08-25T02:16:40;96503.97;;;19.39;71.18
64228;BME280;50546;49.146;10.616;2022-08-25T02:19:08;96504.69;;;19.36;71.27
64228;BME280;50546;49.146;10.616;2022-08-25T02:21:34;96500.47;;;19.42;71.47
64228;BME280;50546;49.146;10.616;2022-08-25T02:24:00;96503.53;;;19.37;71.47
64228;BME280;50546;49.146;10.616;2022-08-25T02:26:26;96504.19;;;19.04;72.64
64228;BME280;50546;49.146;10.616;2022-08-25T02:28:52;96500.47;;;18.89;73.49
64228;BME280;50546;49.146;10.616;2022-08-25T02:31:19;96505.59;;;18.94;73.95
64228;BME280;50546;49.146;10.616;2022-08-25T02:33:45;96507.72;;;19.05;72.96
64228;BME280;50546;49.146;10.616;2022-08-25T02:36:11;96502.25;;;19.05;72.76
64228;BME280;50546;49.146;10.616;2022-08-25T02:38:37;96501.31;;;19.20;72.10
64228;BME280;50546;49.146;10.616;2022-08-25T02:41:10;96493.06;;;19.16;72.61
64228;BME280;50546;49.146;10.616;2022-08-25T02:43:36;96496.63;;;19.20;72.01
64228;BME280;50546;49.146;10.616;2022-08-25T02:46:03;96499.84;;;19.26;72.31
64228;BME280;50546;49.146;10.616;2022-08-25T02:48:28;96492.09;;;19.28;71.70
64228;BME280;50546;49.146;10.616;2022-08-25T02:50:54;96484.69;;;19.29;71.85
64228;BME280;50546;49.146;10.616;2022-08-25T02:53:20;96488.16;;;19.26;72.32
64228;BME280;50546;49.146;10.616;2022-08-25T02:55:46;96495.66;;;19.32;71.70
64228;BME280;50546;49.146;10.616;2022-08-25T02:58:12;96493.78;;;19.36;70.94
64228;BME280;50546;49.146;10.616;2022-08-25T03:00:37;96494.84;;;19.32;71.01
64228;BME280;50546;49.146;10.616;2022-08-25T03:03:04;96489.09;;;19.10;71.60
64228;BME280;50546;49.146;10.616;2022-08-25T03:05:30;96497.06;;;18.96;71.17
64228;BME280;50546;49.146;10.616;2022-08-25T03:07:56;96494.72;;;18.98;71.21
64228;BME280;50546;49.146;10.616;2022-08-25T03:10:21;96499.84;;;18.99;71.24
64228;BME280;50546;49.146;10.616;2022-08-25T03:12:46;96501.81;;;19.03;71.67
64228;BME280;50546;49.146;10.616;2022-08-25T03:15:14;96498.69;;;19.00;71.44
64228;BME280;50546;49.146;10.616;2022-08-25T03:17:46;96500.50;;;18.93;71.97
64228;BME280;50546;49.146;10.616;2022-08-25T03:20:13;96504.81;;;18.94;71.87
64228;BME280;50546;49.146;10.616;2022-08-25T03:22:39;96499.00;;;18.95;72.35
64228;BME280;50546;49.146;10.616;2022-08-25T03:25:05;96502.94;;;18.98;71.94
64228;BME280;50546;49.146;10.616;2022-08-25T03:27:49;96499.03;;;18.99;71.12
64228;BME280;50546;49.146;10.616;2022-08-25T03:30:15;96491.59;;;18.96;71.14
64228;BME280;50546;49.146;10.616;2022-08-25T03:32:41;96497.59;;;18.82;71.15
64228;BME280;50546;49.146;10.616;2022-08-25T03:35:07;96491.69;;;18.57;71.73
64228;BME280;50546;49.146;10.616;2022-08-25T03:37:33;96483.91;;;18.36;71.52
64228;BME280;50546;49.146;10.616;2022-08-25T03:39:59;96487.22;;;18.26;71.65
64228;BME280;50546;49.146;10.616;2022-08-25T03:42:25;96482.88;;;18.02;73.07
64228;BME280;50546;49.146;10.616;2022-08-25T03:44:50;96486.69;;;17.97;72.92
64228;BME280;50546;49.146;10.616;2022-08-25T03:47:15;96481.09;;;17.90;74.06
64228;BME280;50546;49.146;10.616;2022-08-25T03:49:41;96478.84;;;17.96;75.51
64228;BME280;50546;49.146;10.616;2022-08-25T03:52:06;96474.13;;;17.93;75.41
64228;BME280;50546;49.146;10.616;2022-08-25T03:54:31;96475.47;;;18.02;74.81
64228;BME280;50546;49.146;10.616;2022-08-25T03:56:57;96480.09;;;17.98;75.58
64228;BME280;50546;49.146;10.616;2022-08-25T03:59:22;96473.47;;;17.99;75.93
64228;BME280;50546;49.146;10.616;2022-08-25T04:01:49;96472.63;;;17.95;76.20
64228;BME280;50546;49.146;10.616;2022-08-25T04:04:15;96476.94;;;17.77;76.87
64228;BME280;50546;49.146;10.616;2022-08-25T04:06:41;96478.22;;;17.83;75.84
64228;BME280;50546;49.146;10.616;2022-08-25T04:09:08;96477.94;;;17.88;75.10
64228;BME280;50546;49.146;10.616;2022-08-25T04:11:34;96485.97;;;17.81;74.72
64228;BME280;50546;49.146;10.616;2022-08-25T04:14:00;96481.59;;;17.76;73.53
64228;BME280;50546;49.146;10.616;2022-08-25T04:16:28;96476.94;;;17.77;73.65
64228;BME280;50546;49.146;10.616;2022-08-25T04:18:56;96480.22;;;17.86;73.36
64228;BME280;50546;49.146;10.616;2022-08-25T04:21:22;96471.06;;;17.94;73.29
64228;BME280;50546;49.146;10.616;2022-08-25T04:23:49;96469.59;;;18.00;73.35
64228;BME280;50546;49.146;10.616;2022-08-25T04:26:19;96477.44;;;18.02;73.30
64228;BME280;50546;49.146;10.616;2022-08-25T04:28:45;96477.28;;;17.95;73.74
64228;BME280;50546;49.146;10.616;2022-08-25T04:31:11;96478.63;;;18.04;73.39
64228;BME280;50546;49.146;10.616;2022-08-25T04:33:39;96485.69;;;18.06;73.44
64228;BME280;50546;49.146;10.616;2022-08-25T04:36:07;96479.78;;;18.03;73.86
64228;BME280;50546;49.146;10.616;2022-08-25T04:38:33;96485.53;;;17.98;74.87
64228;BME280;50546;49.146;10.616;2022-08-25T04:41:02;96493.41;;;18.03;74.65
64228;BME280;50546;49.146;10.616;2022-08-25T04:43:32;96500.66;;;18.15;73.89
64228;BME280;50546;49.146;10.616;2022-08-25T04:45:59;96495.34;;;18.03;74.89
64228;BME280;50546;49.146;10.616;2022-08-25T04:48:25;96496.44;;;17.98;75.22
64228;BME280;50546;49.146;10.616;2022-08-25T04:50:50;96480.63;;;18.08;74.85
64228;BME280;50546;49.146;10.616;2022-08-25T04:53:16;96476.06;;;17.92;75.76
64228;BME280;50546;49.146;10.616;2022-08-25T04:55:43;96473.13;;;17.82;76.33
64228;BME280;50546;49.146;10.616;2022-08-25T04:58:10;96469.31;;;17.86;76.46
64228;BME280;50546;49.146;10.616;2022-08-25T05:00:37;96468.09;;;18.03;75.18
64228;BME280;50546;49.146;10.616;2022-08-25T05:03:03;96474.19;;;18.16;75.31
64228;BME280;50546;49.146;10.616;2022-08-25T05:05:29;96470.44;;;18.24;75.68
64228;BME280;50546;49.146;10.616;2022-08-25T05:07:55;96463.91;;;18.28;75.13
64228;BME280;50546;49.146;10.616;2022-08-25T05:10:20;96465.25;;;18.19;75.24
64228;BME280;50546;49.146;10.616;2022-08-25T05:12:45;96469.72;;;18.08;76.30
64228;BME280;50546;49.146;10.616;2022-08-25T05:15:11;96469.59;;;18.20;75.13
64228;BME280;50546;49.146;10.616;2022-08-25T05:17:55;96472.91;;;18.10;76.43
64228;BME280;50546;49.146;10.616;2022-08-25T05:20:21;96470.97;;;18.10;76.28
64228;BME280;50546;49.146;10.616;2022-08-25T05:22:47;96472.50;;;18.31;75.53
64228;BME280;50546;49.146;10.616;2022-08-25T05:25:13;96473.31;;;18.31;75.72
64228;BME280;50546;49.146;10.616;2022-08-25T05:27:39;96482.19;;;18.28;76.22
64228;BME280;50546;49.146;10.616;2022-08-25T05:30:05;96476.75;;;18.28;76.08
64228;BME280;50546;49.146;10.616;2022-08-25T05:32:31;96485.50;;;18.18;77.14
64228;BME280;50546;49.146;10.616;2022-08-25T05:34:56;96479.03;;;18.26;76.28
64228;BME280;50546;49.146;10.616;2022-08-25T05:37:21;96488.56;;;18.36;75.70
64228;BME280;50546;49.146;10.616;2022-08-25T05:39:47;96483.06;;;18.55;75.88
64228;BME280;50546;49.146;10.616;2022-08-25T05:42:12;96488.66;;;18.62;75.50
64228;BME280;50546;49.146;10.616;2022-08-25T05:44:37;96494.50;;;18.84;74.27
64228;BME280;50546;49.146;10.616;2022-08-25T05:47:03;96485.13;;;18.81;74.78
64228;BME280;50546;49.146;10.616;2022-08-25T05:49:28;96481.50;;;18.77;74.98
64228;BME280;50546;49.146;10.616;2022-08-25T05:51:53;96475.94;;;18.93;74.02
64228;BME280;50546;49.146;10.616;2022-08-25T05:54:19;96485.03;;;19.00;74.39
64228;BME280;50546;49.146;10.616;2022-08-25T05:56:45;96489.72;;;19.00;73.74
64228;BME280;50546;49.146;10.616;2022-08-25T05:59:10;96483.47;;;18.99;73.81
64228;BME280;50546;49.146;10.616;2022-08-25T06:01:35;96484.13;;;18.93;73.50
64228;BME280;50546;49.146;10.616;2022-08-25T06:04:19;96484.47;;;18.91;74.30
64228;BME280;50546;49.146;10.616;2022-08-25T06:06:46;96478.38;;;18.75;74.99
64228;BME280;50546;49.146;10.616;2022-08-25T06:09:13;96472.91;;;18.75;75.01
64228;BME280;50546;49.146;10.616;2022-08-25T06:11:39;96473.66;;;18.72;75.26
64228;BME280;50546;49.146;10.616;2022-08-25T06:14:05;96479.38;;;18.67;75.49
64228;BME280;50546;49.146;10.616;2022-08-25T06:16:31;96478.31;;;18.71;75.56
64228;BME280;50546;49.146;10.616;2022-08-25T06:18:57;96476.81;;;18.74;75.22
64228;BME280;50546;49.146;10.616;2022-08-25T06:21:22;96474.38;;;18.92;75.05
64228;BME280;50546;49.146;10.616;2022-08-25T06:23:47;96476.00;;;18.96;75.34
64228;BME280;50546;49.146;10.616;2022-08-25T06:26:13;96480.69;;;18.96;75.59
64228;BME280;50546;49.146;10.616;2022-08-25T06:28:39;96465.28;;;19.11;74.93
64228;BME280;50546;49.146;10.616;2022-08-25T06:31:04;96462.97;;;19.39;74.26
64228;BME280;50546;49.146;10.616;2022-08-25T06:33:29;96462.22;;;19.69;73.70
64228;BME280;50546;49.146;10.616;2022-08-25T06:35:55;96452.06;;;19.69;73.10
64228;BME280;50546;49.146;10.616;2022-08-25T06:38:21;96459.00;;;19.63;73.06
64228;BME280;50546;49.146;10.616;2022-08-25T06:40:47;96459.97;;;19.78;73.12
64228;BME280;50546;49.146;10.616;2022-08-25T06:43:13;96456.00;;;20.06;72.77
64228;BME280;50546;49.146;10.616;2022-08-25T06:45:40;96458.91;;;20.20;72.27
64228;BME280;50546;49.146;10.616;2022-08-25T06:48:06;96462.94;;;20.33;72.08
64228;BME280;50546;49.146;10.616;2022-08-25T06:50:31;96456.88;;;20.51;72.00
64228;BME280;50546;49.146;10.616;2022-08-25T06:52:57;96454.22;;;20.58;71.78
64228;BME280;50546;49.146;10.616;2022-08-25T06:55:22;96445.28;;;20.64;71.19
64228;BME280;50546;49.146;10.616;2022-08-25T06:57:47;96447.00;;;20.83;70.54
64228;BME280;50546;49.146;10.616;2022-08-25T07:00:13;96446.13;;;20.72;70.87
64228;BME280;50546;49.146;10.616;2022-08-25T07:02:38;96450.22;;;20.92;70.72
64228;BME280;50546;49.146;10.616;2022-08-25T07:05:05;96445.19;;;21.05;70.68
64228;BME280;50546;49.146;10.616;2022-08-25T07:07:30;96450.44;;;21.25;69.53
64228;BME280;50546;49.146;10.616;2022-08-25T07:09:56;96459.63;;;21.50;68.79
64228;BME280;50546;49.146;10.616;2022-08-25T07:12:21;96456.97;;;21.68;68.91
64228;BME280;50546;49.146;10.616;2022-08-25T07:14:48;96448.47;;;21.95;67.78
64228;BME280;50546;49.146;10.616;2022-08-25T07:17:14;96444.25;;;22.15;66.67
64228;BME280;50546;49.146;10.616;2022-08-25T07:19:39;96451.34;;;22.30;67.13
64228;BME280;50546;49.146;10.616;2022-08-25T07:22:05;96445.09;;;22.51;65.48
64228;BME280;50546;49.146;10.616;2022-08-25T07:24:30;96450.59;;;22.55;66.51
64228;BME280;50546;49.146;10.616;2022-08-25T07:26:55;96447.06;;;22.83;64.59
64228;BME280;50546;49.146;10.616;2022-08-25T07:29:23;96445.09;;;22.83;64.27
64228;BME280;50546;49.146;10.616;2022-08-25T07:31:49;96449.03;;;22.82;64.94
64228;BME280;50546;49.146;10.616;2022-08-25T07:34:15;96443.94;;;22.70;64.42
64228;BME280;50546;49.146;10.616;2022-08-25T07:36:59;96439.22;;;22.49;65.25
64228;BME280;50546;49.146;10.616;2022-08-25T07:39:26;96449.41;;;22.52;65.48
64228;BME280;50546;49.146;10.616;2022-08-25T07:41:52;96446.69;;;22.70;64.89
64228;BME280;50546;49.146;10.616;2022-08-25T07:44:17;96448.66;;;22.95;64.10
64228;BME280;50546;49.146;10.616;2022-08-25T07:46:43;96441.59;;;23.19;63.23
64228;BME280;50546;49.146;10.616;2022-08-25T07:49:08;96444.63;;;23.57;62.95
64228;BME280;50546;49.146;10.616;2022-08-25T07:51:34;96447.66;;;23.98;61.14
64228;BME280;50546;49.146;10.616;2022-08-25T07:53:59;96433.50;;;23.96;60.15
64228;BME280;50546;49.146;10.616;2022-08-25T07:56:25;96444.81;;;24.19;59.94
64228;BME280;50546;49.146;10.616;2022-08-25T07:58:50;96430.91;;;24.48;59.62
64228;BME280;50546;49.146;10.616;2022-08-25T08:01:18;96435.41;;;24.72;59.00
64228;BME280;50546;49.146;10.616;2022-08-25T08:03:44;96444.00;;;24.85;58.74
64228;BME280;50546;49.146;10.616;2022-08-25T08:06:12;96440.31;;;25.03;57.67
64228;BME280;50546;49.146;10.616;2022-08-25T08:08:40;96437.34;;;25.28;57.06
64228;BME280;50546;49.146;10.616;2022-08-25T08:11:17;96442.69;;;25.45;55.51
64228;BME280;50546;49.146;10.616;2022-08-25T08:13:43;96429.41;;;25.33;56.03
64228;BME280;50546;49.146;10.616;2022-08-25T08:16:10;96433.66;;;25.41;56.69
64228;BME280;50546;49.146;10.616;2022-08-25T08:18:36;96427.50;;;25.64;55.55
64228;BME280;50546;49.146;10.616;2022-08-25T08:21:01;96433.84;;;25.61;55.83
64228;BME280;50546;49.146;10.616;2022-08-25T08:23:26;96428.78;;;25.53;54.43
64228;BME280;50546;49.146;10.616;2022-08-25T08:25:53;96428.69;;;25.63;55.01
64228;BME280;50546;49.146;10.616;2022-08-25T08:28:21;96420.13;;;25.88;53.89
64228;BME280;50546;49.146;10.616;2022-08-25T08:30:47;96425.19;;;25.59;54.87
64228;BME280;50546;49.146;10.616;2022-08-25T08:33:13;96419.88;;;25.38;55.73
64228;BME280;50546;49.146;10.616;2022-08-25T08:35:41;96422.66;;;25.38;54.06
64228;BME280;50546;49.146;10.616;2022-08-25T08:38:06;96428.09;;;25.45;55.55
64228;BME280;50546;49.146;10.616;2022-08-25T08:40:40;96429.91;;;25.59;55.34
64228;BME280;50546;49.146;10.616;2022-08-25T08:43:29;96422.63;;;25.76;54.86
64228;BME280;50546;49.146;10.616;2022-08-25T08:45:56;96433.84;;;25.61;55.44
64228;BME280;50546;49.146;10.616;2022-08-25T08:48:39;96433.25;;;25.77;55.05
64228;BME280;50546;49.146;10.616;2022-08-25T08:51:21;96423.81;;;26.09;53.68
64228;BME280;50546;49.146;10.616;2022-08-25T08:54:00;96416.00;;;26.31;52.48
64228;BME280;50546;49.146;10.616;2022-08-25T08:56:34;96409.72;;;26.57;53.25
64228;BME280;50546;49.146;10.616;2022-08-25T08:59:10;96411.19;;;26.66;52.62
64228;BME280;50546;49.146;10.616;2022-08-25T09:01:50;96408.16;;;26.56;52.40
64228;BME280;50546;49.146;10.616;2022-08-25T09:07:03;96406.38;;;26.15;52.05
64228;BME280;50546;49.146;10.616;2022-08-25T09:09:33;96405.97;;;26.44;53.45
64228;BME280;50546;49.146;10.616;2022-08-25T09:15:08;96416.22;;;26.71;51.90
64228;BME280;50546;49.146;10.616;2022-08-25T09:18:08;96411.25;;;26.62;51.47
64228;BME280;50546;49.146;10.616;2022-08-25T09:20:48;96410.94;;;26.56;52.73
64228;BME280;50546;49.146;10.616;2022-08-25T09:23:41;96413.13;;;26.92;51.50
64228;BME280;50546;49.146;10.616;2022-08-25T09:26:21;96409.47;;;27.22;50.51
64228;BME280;50546;49.146;10.616;2022-08-25T09:28:51;96408.50;;;27.52;50.87
64228;BME280;50546;49.146;10.616;2022-08-25T09:31:31;96408.84;;;27.78;49.77
64228;BME280;50546;49.146;10.616;2022-08-25T09:33:59;96409.56;;;27.98;48.30
64228;BME280;50546;49.146;10.616;2022-08-25T09:36:26;96398.06;;;28.36;48.71
64228;BME280;50546;49.146;10.616;2022-08-25T09:38:51;96398.34;;;28.05;47.85
64228;BME280;50546;49.146;10.616;2022-08-25T09:41:33;96395.03;;;28.30;48.48
64228;BME280;50546;49.146;10.616;2022-08-25T09:43:59;96394.34;;;28.06;47.54
64228;BME280;50546;49.146;10.616;2022-08-25T09:46:27;96383.72;;;27.65;50.03
64228;BME280;50546;49.146;10.616;2022-08-25T09:48:55;96380.47;;;27.90;49.77
64228;BME280;50546;49.146;10.616;2022-08-25T09:51:33;96374.25;;;28.39;49.60
64228;BME280;50546;49.146;10.616;2022-08-25T09:54:02;96363.94;;;28.88;47.14
64228;BME280;50546;49.146;10.616;2022-08-25T09:56:31;96368.63;;;28.91;47.20
64228;BME280;50546;49.146;10.616;2022-08-25T10:01:52;96345.06;;;28.99;48.31
64228;BME280;50546;49.146;10.616;2022-08-25T10:04:34;96348.84;;;28.24;47.94
64228;BME280;50546;49.146;10.616;2022-08-25T10:07:17;96344.19;;;28.37;47.70
64228;BME280;50546;49.146;10.616;2022-08-25T10:09:54;96344.38;;;28.46;48.29
64228;BME280;50546;49.146;10.616;2022-08-25T10:12:23;96333.50;;;28.36;46.78
64228;BME280;50546;49.146;10.616;2022-08-25T10:14:53;96344.69;;;28.32;49.07
64228;BME280;50546;49.146;10.616;2022-08-25T10:17:31;96336.50;;;28.45;48.13
64228;BME280;50546;49.146;10.616;2022-08-25T10:22:34;96329.81;;;28.42;46.04
64228;BME280;50546;49.146;10.616;2022-08-25T10:25:00;96330.22;;;27.32;48.14
64228;BME280;50546;49.146;10.616;2022-08-25T10:27:33;96323.84;;;27.35;49.68
64228;BME280;50546;49.146;10.616;2022-08-25T10:30:11;96323.34;;;27.60;48.98
64228;BME280;50546;49.146;10.616;2022-08-25T10:43:43;96314.78;;;28.43;48.19
64228;BME280;50546;49.146;10.616;2022-08-25T10:46:32;96318.47;;;28.37;45.73
64228;BME280;50546;49.146;10.616;2022-08-25T10:49:10;96319.13;;;28.24;47.83
64228;BME280;50546;49.146;10.616;2022-08-25T10:52:00;96316.53;;;28.83;46.56
64228;BME280;50546;49.146;10.616;2022-08-25T10:54:41;96311.31;;;29.01;44.44
64228;BME280;50546;49.146;10.616;2022-08-25T10:57:31;96299.53;;;29.26;45.87
64228;BME280;50546;49.146;10.616;2022-08-25T11:00:19;96303.69;;;29.34;43.63
64228;BME280;50546;49.146;10.616;2022-08-25T11:05:36;96301.50;;;29.13;45.75
64228;BME280;50546;49.146;10.616;2022-08-25T11:08:30;96298.56;;;29.03;45.04
64228;BME280;50546;49.146;10.616;2022-08-25T11:11:12;96284.22;;;28.76;46.30
64228;BME280;50546;49.146;10.616;2022-08-25T11:13:59;96281.00;;;28.77;46.20
64228;BME280;50546;49.146;10.616;2022-08-25T11:19:15;96287.59;;;29.55;45.42
64228;BME280;50546;49.146;10.616;2022-08-25T11:21:52;96273.22;;;30.11;44.01
64228;BME280;50546;49.146;10.616;2022-08-25T11:27:13;96276.25;;;30.29;41.64
64228;BME280;50546;49.146;10.616;2022-08-25T11:29:40;96277.69;;;29.41;44.92
64228;BME280;50546;49.146;10.616;2022-08-25T11:32:08;96277.47;;;29.48;43.21
64228;BME280;50546;49.146;10.616;2022-08-25T11:34:35;96281.56;;;29.72;45.05
64228;BME280;50546;49.146;10.616;2022-08-25T11:37:33;96265.31;;;30.09;43.03
64228;BME280;50546;49.146;10.616;2022-08-25T11:40:25;96271.69;;;29.97;43.25
64228;BME280;50546;49.146;10.616;2022-08-25T11:42:58;96276.44;;;30.09;43.82
64228;BME280;50546;49.146;10.616;2022-08-25T11:48:27;96260.69;;;31.01;40.19
64228;BME280;50546;49.146;10.616;2022-08-25T11:51:24;96271.22;;;30.24;41.34
64228;BME280;50546;49.146;10.616;2022-08-25T11:54:26;96284.16;;;29.38;43.03
64228;BME280;50546;49.146;10.616;2022-08-25T12:04:53;96279.00;;;29.78;42.91
64228;BME280;50546;49.146;10.616;2022-08-25T12:07:22;96276.22;;;29.65;43.28
64228;BME280;50546;49.146;10.616;2022-08-25T12:12:37;96272.41;;;29.59;42.86
64228;BME280;50546;49.146;10.616;2022-08-25T12:26:15;96259.66;;;29.87;42.96
64228;BME280;50546;49.146;10.616;2022-08-25T12:36:29;96242.66;;;28.89;45.12
64228;BME280;50546;49.146;10.616;2022-08-25T12:39:28;96248.78;;;29.25;44.90
64228;BME280;50546;49.146;10.616;2022-08-25T12:41:59;96239.34;;;29.65;43.71
64228;BME280;50546;49.146;10.616;2022-08-25T12:44:39;96234.22;;;29.89;42.85
64228;BME280;50546;49.146;10.616;2022-08-25T12:47:11;96245.22;;;30.65;42.12
64228;BME280;50546;49.146;10.616;2022-08-25T12:49:37;96242.88;;;30.29;40.53
64228;BME280;50546;49.146;10.616;2022-08-25T12:52:11;96233.53;;;29.97;40.31
64228;BME280;50546;49.146;10.616;2022-08-25T12:54:54;96237.97;;;29.95;42.58
64228;BME280;50546;49.146;10.616;2022-08-25T12:57:37;96238.28;;;30.35;41.06
64228;BME280;50546;49.146;10.616;2022-08-25T13:03:08;96241.09;;;30.70;39.72
64228;BME280;50546;49.146;10.616;2022-08-25T13:08:47;96255.59;;;30.52;39.04
64228;BME280;50546;49.146;10.616;2022-08-25T13:11:24;96241.88;;;29.97;42.62
64228;BME280;50546;49.146;10.616;2022-08-25T13:14:05;96227.97;;;30.23;41.52
64228;BME280;50546;49.146;10.616;2022-08-25T13:16:33;96232.88;;;30.19;41.19
64228;BME280;50546;49.146;10.616;2022-08-25T13:19:03;96235.53;;;30.10;40.45
64228;BME280;50546;49.146;10.616;2022-08-25T13:21:36;96238.88;;;29.12;42.32
64228;BME280;50546;49.146;10.616;2022-08-25T13:24:05;96234.16;;;28.96;43.15
64228;BME280;50546;49.146;10.616;2022-08-25T13:26:33;96237.63;;;29.55;43.39
64228;BME280;50546;49.146;10.616;2022-08-25T13:29:10;96222.75;;;30.25;41.05
64228;BME280;50546;49.146;10.616;2022-08-25T13:31:38;96225.09;;;29.88;41.11
64228;BME280;50546;49.146;10.616;2022-08-25T13:34:17;96217.31;;;30.56;40.85
64228;BME280;50546;49.146;10.616;2022-08-25T13:36:45;96224.31;;;31.17;39.90
64228;BME280;50546;49.146;10.616;2022-08-25T13:39:30;96219.28;;;31.87;37.97
64228;BME280;50546;49.146;10.616;2022-08-25T13:41:59;96217.00;;;32.72;37.78
64228;BME280;50546;49.146;10.616;2022-08-25T13:44:30;96210.78;;;32.68;36.00
64228;BME280;50546;49.146;10.616;2022-08-25T13:47:14;96209.41;;;34.04;34.60
64228;BME280;50546;49.146;10.616;2022-08-25T13:49:42;96208.22;;;33.86;34.31
64228;BME280;50546;49.146;10.616;2022-08-25T13:52:33;96209.44;;;33.94;33.61
64228;BME280;50546;49.146;10.616;2022-08-25T13:55:00;96205.81;;;35.88;31.00
64228;BME280;50546;49.146;10.616;2022-08-25T13:57:29;96206.34;;;36.62;29.80
64228;BME280;50546;49.146;10.616;2022-08-25T14:00:06;96196.41;;;36.47;29.21
64228;BME280;50546;49.146;10.616;2022-08-25T14:02:46;96195.13;;;34.73;30.86
64228;BME280;50546;49.146;10.616;2022-08-25T14:05:13;96206.34;;;33.41;33.09
64228;BME280;50546;49.146;10.616;2022-08-25T14:07:54;96193.69;;;33.73;33.00
64228;BME280;50546;49.146;10.616;2022-08-25T14:10:41;96190.28;;;35.28;31.54
64228;BME280;50546;49.146;10.616;2022-08-25T14:13:14;96195.31;;;34.85;32.11
64228;BME280;50546;49.146;10.616;2022-08-25T14:15:42;96190.66;;;35.50;30.96
64228;BME280;50546;49.146;10.616;2022-08-25T14:18:19;96190.09;;;35.96;30.75